createdAt,value
2019-04-28T00:00:33.176Z,999.88
2019-04-28T00:01:33.305Z,999.87
2019-04-28T00:02:33.309Z,999.80
2019-04-28T00:03:32.599Z,999.86
2019-04-28T00:04:33.312Z,999.86
2019-04-28T00:05:33.823Z,999.76
2019-04-28T00:06:33.215Z,999.81
2019-04-28T00:07:34.329Z,999.86
2019-04-28T00:08:33.842Z,999.78
2019-04-28T00:09:33.844Z,999.84
2019-04-28T00:10:34.799Z,999.79
2019-04-28T00:11:34.075Z,999.78
2019-04-28T00:12:34.262Z,999.86
2019-04-28T00:13:35.304Z,999.82
2019-04-28T00:14:34.581Z,999.88
2019-04-28T00:15:35.335Z,999.82
2019-04-28T00:16:34.858Z,999.83
2019-04-28T00:17:35.016Z,999.86
2019-04-28T00:18:35.324Z,999.87
2019-04-28T00:19:35.361Z,999.84
2019-04-28T00:20:35.524Z,999.87
2019-04-28T00:21:35.672Z,999.86
2019-04-28T00:22:35.876Z,999.81
2019-04-28T00:23:36.028Z,999.86
2019-04-28T00:24:36.232Z,999.87
2019-04-28T00:25:36.422Z,999.82
2019-04-28T00:26:37.304Z,999.79
2019-04-28T00:27:36.838Z,999.85
2019-04-28T00:28:36.980Z,999.88
2019-04-28T00:29:41.057Z,999.87
2019-04-28T00:30:39.308Z,999.81
2019-04-28T00:31:37.429Z,999.84
2019-04-28T00:32:37.594Z,999.83
2019-04-28T00:33:38.313Z,999.84
2019-04-28T00:34:38.326Z,999.85
2019-04-28T00:35:38.106Z,999.83
2019-04-28T00:36:38.262Z,999.84
2019-04-28T00:37:39.329Z,999.82
2019-04-28T00:38:39.308Z,999.82
2019-04-28T00:39:38.787Z,999.82
2019-04-28T00:40:38.924Z,999.88
2019-04-28T00:41:39.064Z,999.81
2019-04-28T00:42:41.402Z,999.75
2019-04-28T00:43:39.379Z,999.76
2019-04-28T00:44:43.045Z,999.82
2019-04-28T00:45:41.319Z,999.80
2019-04-28T00:46:41.078Z,999.81
2019-04-28T00:47:42.618Z,999.77
2019-04-28T00:48:41.822Z,999.78
2019-04-28T00:49:41.987Z,999.75
2019-04-28T00:50:43.768Z,999.81
2019-04-28T00:51:41.540Z,999.79
2019-04-28T00:52:41.968Z,999.82
2019-04-28T00:53:42.020Z,999.74
2019-04-28T00:54:42.056Z,999.81
2019-04-28T00:55:42.374Z,999.78
2019-04-28T00:56:42.102Z,999.79
2019-04-28T00:57:42.321Z,999.79
2019-04-28T00:58:43.079Z,999.81
2019-04-28T00:59:54.103Z,999.79
2019-04-28T01:00:44.106Z,999.83
2019-04-28T01:01:42.824Z,999.77
2019-04-28T01:02:42.487Z,999.82
2019-04-28T01:03:42.661Z,999.81
2019-04-28T01:04:42.843Z,999.81
2019-04-28T01:05:43.333Z,999.85
2019-04-28T01:06:43.327Z,999.81
2019-04-28T01:07:43.387Z,999.82
2019-04-28T01:08:43.551Z,999.79
2019-04-28T01:09:44.401Z,999.79
2019-04-28T01:10:43.979Z,999.79
2019-04-28T01:11:44.805Z,999.74
2019-04-28T01:12:46.788Z,999.73
2019-04-28T01:13:45.494Z,999.78
2019-04-28T01:14:45.328Z,999.78
2019-04-28T01:15:45.362Z,999.74
2019-04-28T01:16:45.023Z,999.76
2019-04-28T01:17:45.174Z,999.77
2019-04-28T01:18:45.337Z,999.80
2019-04-28T01:19:45.527Z,999.78
2019-04-28T01:20:45.729Z,999.87
2019-04-28T01:21:45.928Z,999.80
2019-04-28T01:22:46.080Z,999.80
2019-04-28T01:23:46.264Z,999.82
2019-04-28T01:24:46.466Z,999.80
2019-04-28T01:25:46.629Z,999.75
2019-04-28T01:26:46.798Z,999.78
2019-04-28T01:27:46.954Z,999.78
2019-04-28T01:28:47.158Z,999.80
2019-04-28T01:29:47.320Z,999.79
2019-04-28T01:30:49.921Z,999.80
2019-04-28T01:31:49.373Z,999.83
2019-04-28T01:32:49.767Z,999.81
2019-04-28T01:33:48.021Z,999.79
2019-04-28T01:34:49.854Z,999.83
2019-04-28T01:35:49.397Z,999.81
2019-04-28T01:36:49.542Z,999.80
2019-04-28T01:37:50.500Z,999.79
2019-04-28T01:38:50.076Z,999.81
2019-04-28T01:39:49.820Z,999.80
2019-04-28T01:40:50.026Z,999.79
2019-04-28T01:41:51.317Z,999.81
2019-04-28T01:42:50.331Z,999.79
2019-04-28T01:43:49.841Z,999.83
2019-04-28T01:44:50.015Z,999.81
2019-04-28T01:45:50.831Z,999.81
2019-04-28T01:46:50.367Z,999.87
2019-04-28T01:47:51.320Z,999.82
2019-04-28T01:48:50.762Z,999.83
2019-04-28T01:49:50.987Z,999.83
2019-04-28T01:50:51.816Z,999.89
2019-04-28T01:51:52.316Z,999.83
2019-04-28T01:52:52.326Z,999.88
2019-04-28T01:53:51.620Z,999.87
2019-04-28T01:54:51.842Z,999.93
2019-04-28T01:55:52.035Z,999.89
2019-04-28T01:56:52.189Z,999.92
2019-04-28T01:57:52.362Z,999.87
2019-04-28T01:58:52.572Z,999.98
2019-04-28T01:59:52.739Z,999.94
2019-04-28T02:00:52.894Z,999.94
2019-04-28T02:01:53.031Z,999.91
2019-04-28T02:02:53.822Z,999.96
2019-04-28T02:03:53.834Z,999.94
2019-04-28T02:04:53.486Z,999.94
2019-04-28T02:05:53.664Z,999.92
2019-04-28T02:06:53.846Z,999.90
2019-04-28T02:07:54.013Z,999.98
2019-04-28T02:08:54.858Z,999.94
2019-04-28T02:09:55.323Z,999.93
2019-04-28T02:10:54.569Z,999.93
2019-04-28T02:11:54.730Z,999.93
2019-04-28T02:12:54.862Z,999.98
2019-04-28T02:13:55.017Z,999.93
2019-04-28T02:14:55.875Z,1000.01
2019-04-28T02:15:55.371Z,1000.03
2019-04-28T02:16:55.537Z,999.99
2019-04-28T02:17:55.647Z,1000.07
2019-04-28T02:18:55.769Z,999.99
2019-04-28T02:19:56.814Z,1000.04
2019-04-28T02:20:56.088Z,1000.03
2019-04-28T02:21:56.370Z,1000.01
2019-04-28T02:22:56.443Z,1000.02
2019-04-28T02:23:56.656Z,1000.02
2019-04-28T02:24:56.839Z,1000.00
2019-04-28T02:25:56.985Z,999.96
2019-04-28T02:26:57.162Z,999.99
2019-04-28T02:27:57.326Z,1000.02
2019-04-28T02:28:57.505Z,1000.02
2019-04-28T02:29:59.904Z,1000.02
2019-04-28T02:30:57.799Z,1000.02
2019-04-28T02:32:01.924Z,1000.03
2019-04-28T02:32:58.067Z,1000.04
2019-04-28T02:34:00.789Z,1000.02
2019-04-28T02:35:01.472Z,1000.05
2019-04-28T02:36:01.401Z,1000.08
2019-04-28T02:37:01.535Z,1000.08
2019-04-28T02:38:00.203Z,1000.06
2019-04-28T02:39:00.827Z,1000.06
2019-04-28T02:40:03.315Z,1000.07
2019-04-28T02:41:00.148Z,1000.09
2019-04-28T02:42:01.890Z,1000.07
2019-04-28T02:43:01.832Z,1000.08
2019-04-28T02:44:01.096Z,1000.04
2019-04-28T02:45:01.340Z,1000.09
2019-04-28T02:46:00.880Z,1000.09
2019-04-28T02:47:01.394Z,1000.05
2019-04-28T02:48:02.015Z,1000.08
2019-04-28T02:49:22.025Z,1000.14
2019-04-28T02:50:01.880Z,1000.08
2019-04-28T02:51:01.430Z,1000.13
2019-04-28T02:52:03.050Z,1000.10
2019-04-28T02:53:03.331Z,1000.13
2019-04-28T02:54:01.989Z,1000.18
2019-04-28T02:55:03.640Z,1000.15
2019-04-28T02:56:03.265Z,1000.15
2019-04-28T02:57:35.918Z,1000.12
2019-04-28T02:58:02.637Z,1000.10
2019-04-28T02:59:02.774Z,1000.18
2019-04-28T03:00:02.910Z,1000.17
2019-04-28T03:01:12.803Z,1000.12
2019-04-28T03:02:04.298Z,1000.17
2019-04-28T03:03:04.364Z,1000.19
2019-04-28T03:04:03.628Z,1000.20
2019-04-28T03:05:03.885Z,1000.19
2019-04-28T03:06:03.940Z,1000.22
2019-04-28T03:07:04.077Z,1000.20
2019-04-28T03:08:04.248Z,1000.21
2019-04-28T03:09:05.376Z,1000.20
2019-04-28T03:10:04.620Z,1000.19
2019-04-28T03:11:04.792Z,1000.23
2019-04-28T03:12:04.942Z,1000.19
2019-04-28T03:13:06.859Z,1000.21
2019-04-28T03:14:05.231Z,1000.19
2019-04-28T03:15:05.391Z,1000.24
2019-04-28T03:16:06.584Z,1000.19
2019-04-28T03:17:05.699Z,1000.27
2019-04-28T03:18:06.369Z,1000.23
2019-04-28T03:19:06.007Z,1000.22
2019-04-28T03:20:06.158Z,1000.21
2019-04-28T03:21:06.320Z,1000.27
2019-04-28T03:22:06.480Z,1000.22
2019-04-28T03:23:09.021Z,1000.24
2019-04-28T03:24:10.986Z,1000.29
2019-04-28T03:25:06.978Z,1000.26
2019-04-28T03:26:07.869Z,1000.27
2019-04-28T03:27:07.381Z,1000.31
2019-04-28T03:28:07.533Z,1000.28
2019-04-28T03:29:07.678Z,1000.29
2019-04-28T03:30:07.844Z,1000.36
2019-04-28T03:31:36.800Z,1000.32
2019-04-28T03:32:31.127Z,1000.30
2019-04-28T03:33:13.086Z,1000.29
2019-04-28T03:34:12.905Z,1000.35
2019-04-28T03:35:13.017Z,1000.32
2019-04-28T03:36:15.066Z,1000.31
2019-04-28T03:37:11.315Z,1000.34
2019-04-28T03:38:10.723Z,1000.27
2019-04-28T03:39:11.011Z,1000.28
2019-04-28T03:40:11.508Z,1000.31
2019-04-28T03:41:11.281Z,1000.35
2019-04-28T03:42:11.778Z,1000.28
2019-04-28T03:43:14.298Z,1000.33
2019-04-28T03:44:11.483Z,1000.33
2019-04-28T03:45:11.407Z,1000.34
2019-04-28T03:46:11.895Z,1000.35
2019-04-28T03:47:10.885Z,1000.35
2019-04-28T03:48:11.564Z,1000.32
2019-04-28T03:49:12.124Z,1000.32
2019-04-28T03:50:11.232Z,1000.37
2019-04-28T03:51:13.403Z,1000.31
2019-04-28T03:52:13.369Z,1000.38
2019-04-28T03:53:11.746Z,1000.38
2019-04-28T03:54:12.868Z,1000.36
2019-04-28T03:55:12.101Z,1000.42
2019-04-28T03:56:12.397Z,1000.38
2019-04-28T03:57:12.474Z,1000.42
2019-04-28T03:58:12.620Z,1000.40
2019-04-28T03:59:13.372Z,1000.40
2019-04-28T04:00:13.866Z,1000.40
2019-04-28T04:01:13.305Z,1000.43
2019-04-28T04:02:13.468Z,1000.53
2019-04-28T04:03:13.624Z,1000.47
2019-04-28T04:04:13.807Z,1000.50
2019-04-28T04:05:13.971Z,1000.56
2019-04-28T04:06:14.210Z,1000.55
2019-04-28T04:07:14.386Z,1000.51
2019-04-28T04:08:14.570Z,1000.57
2019-04-28T04:09:15.369Z,1000.54
2019-04-28T04:10:15.874Z,1000.57
2019-04-28T04:11:15.152Z,1000.61
2019-04-28T04:12:15.324Z,1000.54
2019-04-28T04:13:15.529Z,1000.60
2019-04-28T04:14:15.679Z,1000.48
2019-04-28T04:15:15.833Z,1000.53
2019-04-28T04:16:16.873Z,1000.58
2019-04-28T04:17:16.157Z,1000.55
2019-04-28T04:18:16.384Z,1000.53
2019-04-28T04:19:17.372Z,1000.45
2019-04-28T04:20:16.781Z,1000.52
2019-04-28T04:21:16.950Z,1000.49
2019-04-28T04:22:17.115Z,1000.46
2019-04-28T04:23:17.292Z,1000.46
2019-04-28T04:24:20.553Z,1000.49
2019-04-28T04:25:20.348Z,1000.43
2019-04-28T04:26:17.860Z,1000.45
2019-04-28T04:27:20.765Z,1000.44
2019-04-28T04:28:20.564Z,1000.46
2019-04-28T04:29:18.405Z,1000.47
2019-04-28T04:30:20.715Z,1000.49
2019-04-28T04:31:20.008Z,1000.47
2019-04-28T04:32:26.291Z,1000.44
2019-04-28T04:33:21.129Z,1000.46
2019-04-28T04:34:20.318Z,1000.54
2019-04-28T04:35:21.514Z,1000.53
2019-04-28T04:36:21.236Z,1000.55
2019-04-28T04:37:20.860Z,1000.51
2019-04-28T04:38:21.788Z,1000.51
2019-04-28T04:39:21.183Z,1000.51
2019-04-28T04:40:21.025Z,1000.50
2019-04-28T04:41:21.546Z,1000.51
2019-04-28T04:42:20.678Z,1000.52
2019-04-28T04:43:23.276Z,1000.56
2019-04-28T04:44:21.309Z,1000.52
2019-04-28T04:45:22.218Z,1000.58
2019-04-28T04:46:22.214Z,1000.57
2019-04-28T04:47:23.384Z,1000.59
2019-04-28T04:48:21.816Z,1000.54
2019-04-28T04:49:21.991Z,1000.57
2019-04-28T04:50:22.165Z,1000.61
2019-04-28T04:51:22.326Z,1000.60
2019-04-28T04:52:22.492Z,1000.59
2019-04-28T04:53:22.883Z,1000.65
2019-04-28T04:54:23.373Z,1000.66
2019-04-28T04:55:23.029Z,1000.70
2019-04-28T04:56:23.184Z,1000.69
2019-04-28T04:57:23.867Z,1000.72
2019-04-28T04:58:23.487Z,1000.71
2019-04-28T04:59:23.756Z,1000.71
2019-04-28T05:00:24.888Z,1000.72
2019-04-28T05:01:24.874Z,1000.72
2019-04-28T05:02:29.517Z,1000.73
2019-04-28T05:03:27.378Z,1000.75
2019-04-28T05:04:24.593Z,1000.77
2019-04-28T05:05:24.765Z,1000.72
2019-04-28T05:06:24.917Z,1000.75
2019-04-28T05:07:25.869Z,1000.81
2019-04-28T05:08:26.878Z,1000.78
2019-04-28T05:09:26.498Z,1000.74
2019-04-28T05:10:25.622Z,1000.81
2019-04-28T05:11:26.382Z,1000.76
2019-04-28T05:12:26.875Z,1000.83
2019-04-28T05:13:26.223Z,1000.80
2019-04-28T05:14:26.388Z,1000.77
2019-04-28T05:15:26.517Z,1000.77
2019-04-28T05:16:26.665Z,1000.79
2019-04-28T05:17:26.815Z,1000.81
2019-04-28T05:18:26.931Z,1000.77
2019-04-28T05:19:27.074Z,1000.77
2019-04-28T05:20:27.388Z,1000.80
2019-04-28T05:21:32.859Z,1000.85
2019-04-28T05:22:29.996Z,1000.81
2019-04-28T05:23:29.714Z,1000.79
2019-04-28T05:24:27.893Z,1000.80
2019-04-28T05:25:30.849Z,1000.81
2019-04-28T05:26:30.069Z,1000.82
2019-04-28T05:27:30.036Z,1000.88
2019-04-28T05:28:32.314Z,1000.87
2019-04-28T05:29:30.734Z,1000.88
2019-04-28T05:30:30.027Z,1000.91
2019-04-28T05:31:29.736Z,1000.91
2019-04-28T05:32:42.089Z,1000.85
2019-04-28T05:33:33.942Z,1000.91
2019-04-28T05:34:30.757Z,1000.91
2019-04-28T05:35:30.006Z,1000.84
2019-04-28T05:36:35.095Z,1000.85
2019-04-28T05:37:31.321Z,1000.92
2019-04-28T05:38:30.477Z,1000.93
2019-04-28T05:39:32.386Z,1000.92
2019-04-28T05:40:31.391Z,1000.93
2019-04-28T05:41:31.061Z,1000.94
2019-04-28T05:42:31.885Z,1000.95
2019-04-28T05:43:31.432Z,1000.96
2019-04-28T05:44:32.029Z,1000.94
2019-04-28T05:45:32.795Z,1000.99
2019-04-28T05:46:32.885Z,1001.01
2019-04-28T05:47:32.174Z,1000.99
2019-04-28T05:48:32.331Z,1001.01
2019-04-28T05:49:32.499Z,1001.01
2019-04-28T05:50:32.680Z,1000.94
2019-04-28T05:51:33.050Z,1000.96
2019-04-28T05:52:33.097Z,1000.97
2019-04-28T05:53:33.325Z,1000.99
2019-04-28T05:54:33.382Z,1000.94
2019-04-28T05:55:33.536Z,1001.03
2019-04-28T05:56:33.715Z,1001.03
2019-04-28T05:57:33.888Z,1001.00
2019-04-28T05:58:34.039Z,1001.01
2019-04-28T05:59:34.192Z,1001.06
2019-04-28T06:00:34.345Z,1001.02
2019-04-28T06:01:34.532Z,1001.00
2019-04-28T06:02:34.704Z,1001.02
2019-04-28T06:03:34.884Z,1000.99
2019-04-28T06:04:35.088Z,1001.03
2019-04-28T06:05:35.249Z,1001.04
2019-04-28T06:06:36.897Z,1001.04
2019-04-28T06:07:36.387Z,1001.12
2019-04-28T06:08:36.381Z,1001.03
2019-04-28T06:09:35.932Z,1001.05
2019-04-28T06:10:36.134Z,1001.01
2019-04-28T06:11:37.315Z,1001.06
2019-04-28T06:12:36.445Z,1001.06
2019-04-28T06:13:36.587Z,1000.95
2019-04-28T06:14:36.763Z,1000.98
2019-04-28T06:15:36.944Z,1000.94
2019-04-28T06:16:37.885Z,1000.98
2019-04-28T06:17:37.397Z,1001.04
2019-04-28T06:18:37.434Z,1001.02
2019-04-28T06:19:37.591Z,1001.07
2019-04-28T06:20:37.725Z,1001.08
2019-04-28T06:21:38.394Z,1001.03
2019-04-28T06:22:38.035Z,1001.05
2019-04-28T06:23:38.185Z,1001.03
2019-04-28T06:24:38.347Z,1001.07
2019-04-28T06:25:38.465Z,1001.07
2019-04-28T06:26:38.582Z,1001.08
2019-04-28T06:27:38.774Z,1001.12
2019-04-28T06:28:39.398Z,1001.07
2019-04-28T06:29:39.392Z,1001.09
2019-04-28T06:30:39.163Z,1001.12
2019-04-28T06:31:39.285Z,1001.14
2019-04-28T06:32:39.396Z,1001.17
2019-04-28T06:33:39.544Z,1001.13
2019-04-28T06:34:39.734Z,1001.12
2019-04-28T06:35:39.878Z,1001.15
2019-04-28T06:36:40.078Z,1001.19
2019-04-28T06:37:40.237Z,1001.20
2019-04-28T06:38:40.404Z,1001.17
2019-04-28T06:39:40.598Z,1001.25
2019-04-28T06:40:40.793Z,1001.18
2019-04-28T06:41:40.980Z,1001.21
2019-04-28T06:42:41.898Z,1001.21
2019-04-28T06:43:41.308Z,1001.20
2019-04-28T06:44:41.461Z,1001.22
2019-04-28T06:45:41.627Z,1001.20
2019-04-28T06:46:41.775Z,1001.19
2019-04-28T06:47:42.902Z,1001.22
2019-04-28T06:48:42.185Z,1001.26
2019-04-28T06:49:42.346Z,1001.16
2019-04-28T06:50:42.978Z,1001.16
2019-04-28T06:51:43.419Z,1001.26
2019-04-28T06:52:42.800Z,1001.27
2019-04-28T06:53:42.939Z,1001.25
2019-04-28T06:54:43.076Z,1001.24
2019-04-28T06:55:43.232Z,1001.27
2019-04-28T06:56:43.347Z,1001.30
2019-04-28T06:57:43.485Z,1001.34
2019-04-28T06:58:44.392Z,1001.36
2019-04-28T06:59:43.795Z,1001.28
2019-04-28T07:00:44.894Z,1001.30
2019-04-28T07:01:44.170Z,1001.37
2019-04-28T07:02:44.314Z,1001.39
2019-04-28T07:03:44.465Z,1001.40
2019-04-28T07:04:44.637Z,1001.33
2019-04-28T07:05:44.770Z,1001.42
2019-04-28T07:06:44.889Z,1001.38
2019-04-28T07:07:45.034Z,1001.33
2019-04-28T07:08:45.279Z,1001.39
2019-04-28T07:09:45.435Z,1001.35
2019-04-28T07:10:45.570Z,1001.43
2019-04-28T07:11:45.736Z,1001.38
2019-04-28T07:12:45.879Z,1001.39
2019-04-28T07:13:46.040Z,1001.38
2019-04-28T07:14:46.227Z,1001.43
2019-04-28T07:15:46.380Z,1001.44
2019-04-28T07:16:46.537Z,1001.45
2019-04-28T07:17:46.710Z,1001.48
2019-04-28T07:18:46.852Z,1001.40
2019-04-28T07:19:47.896Z,1001.44
2019-04-28T07:20:47.408Z,1001.41
2019-04-28T07:21:47.313Z,1001.44
2019-04-28T07:22:47.462Z,1001.41
2019-04-28T07:23:48.395Z,1001.40
2019-04-28T07:24:47.768Z,1001.37
2019-04-28T07:25:47.959Z,1001.36
2019-04-28T07:26:48.135Z,1001.37
2019-04-28T07:27:48.906Z,1001.38
2019-04-28T07:28:48.439Z,1001.43
2019-04-28T07:29:48.625Z,1001.39
2019-04-28T07:30:48.855Z,1001.41
2019-04-28T07:31:49.042Z,1001.41
2019-04-28T07:32:49.275Z,1001.42
2019-04-28T07:33:49.390Z,1001.45
2019-04-28T07:34:49.564Z,1001.42
2019-04-28T07:35:49.738Z,1001.46
2019-04-28T07:36:49.905Z,1001.40
2019-04-28T07:37:50.094Z,1001.38
2019-04-28T07:38:50.262Z,1001.41
2019-04-28T07:39:51.398Z,1001.42
2019-04-28T07:40:50.667Z,1001.39
2019-04-28T07:41:50.849Z,1001.41
2019-04-28T07:42:51.408Z,1001.48
2019-04-28T07:43:51.257Z,1001.47
2019-04-28T07:44:52.394Z,1001.49
2019-04-28T07:45:51.637Z,1001.44
2019-04-28T07:46:51.783Z,1001.49
2019-04-28T07:47:52.423Z,1001.43
2019-04-28T07:48:52.584Z,1001.45
2019-04-28T07:49:53.381Z,1001.45
2019-04-28T07:50:53.404Z,1001.50
2019-04-28T07:51:52.624Z,1001.55
2019-04-28T07:52:52.803Z,1001.45
2019-04-28T07:53:53.003Z,1001.51
2019-04-28T07:54:53.201Z,1001.44
2019-04-28T07:55:53.388Z,1001.50
2019-04-28T07:56:53.498Z,1001.51
2019-04-28T07:57:53.661Z,1001.54
2019-04-28T07:58:53.840Z,1001.57
2019-04-28T07:59:53.985Z,1001.54
2019-04-28T08:00:54.141Z,1001.52
2019-04-28T08:01:54.317Z,1001.55
2019-04-28T08:02:54.915Z,1001.56
2019-04-28T08:03:57.521Z,1001.56
2019-04-28T08:04:54.883Z,1001.57
2019-04-28T08:05:55.421Z,1001.55
2019-04-28T08:06:55.227Z,1001.59
2019-04-28T08:07:55.896Z,1001.61
2019-04-28T08:08:55.539Z,1001.60
2019-04-28T08:09:56.407Z,1001.50
2019-04-28T08:10:56.416Z,1001.55
2019-04-28T08:11:56.164Z,1001.62
2019-04-28T08:12:56.322Z,1001.63
2019-04-28T08:13:56.494Z,1001.53
2019-04-28T08:14:56.607Z,1001.55
2019-04-28T08:15:56.886Z,1001.61
2019-04-28T08:16:57.011Z,1001.61
2019-04-28T08:17:57.133Z,1001.54
2019-04-28T08:18:57.303Z,1001.59
2019-04-28T08:19:57.428Z,1001.56
2019-04-28T08:20:58.415Z,1001.63
2019-04-28T08:21:57.827Z,1001.61
2019-04-28T08:22:57.974Z,1001.55
2019-04-28T08:23:58.080Z,1001.62
2019-04-28T08:24:58.296Z,1001.64
2019-04-28T08:25:58.930Z,1001.63
2019-04-28T08:26:59.412Z,1001.66
2019-04-28T08:27:58.777Z,1001.69
2019-04-28T08:28:59.413Z,1001.71
2019-04-28T08:29:59.898Z,1001.70
2019-04-28T08:30:59.369Z,1001.66
2019-04-28T08:31:59.536Z,1001.68
2019-04-28T08:32:59.695Z,1001.67
2019-04-28T08:34:02.553Z,1001.69
2019-04-28T08:35:01.113Z,1001.71
2019-04-28T08:36:00.221Z,1001.68
2019-04-28T08:37:00.928Z,1001.62
2019-04-28T08:38:00.547Z,1001.64
2019-04-28T08:39:00.679Z,1001.69
2019-04-28T08:40:00.840Z,1001.66
2019-04-28T08:41:00.982Z,1001.68
2019-04-28T08:42:01.919Z,1001.74
2019-04-28T08:43:01.901Z,1001.66
2019-04-28T08:44:01.512Z,1001.66
2019-04-28T08:45:01.698Z,1001.64
2019-04-28T08:46:01.857Z,1001.64
2019-04-28T08:47:01.984Z,1001.70
2019-04-28T08:48:03.226Z,1001.63
2019-04-28T08:49:02.437Z,1001.65
2019-04-28T08:50:02.600Z,1001.65
2019-04-28T08:51:02.784Z,1001.66
2019-04-28T08:52:03.917Z,1001.67
2019-04-28T08:53:03.145Z,1001.59
2019-04-28T08:54:03.305Z,1001.60
2019-04-28T08:55:03.472Z,1001.64
2019-04-28T08:56:03.666Z,1001.62
2019-04-28T08:57:03.810Z,1001.65
2019-04-28T08:58:03.974Z,1001.68
2019-04-28T08:59:05.068Z,1001.57
2019-04-28T09:00:05.288Z,1001.64
2019-04-28T09:01:04.437Z,1001.55
2019-04-28T09:02:04.575Z,1001.61
2019-04-28T09:03:05.717Z,1001.64
2019-04-28T09:04:14.817Z,1001.65
2019-04-28T09:05:07.916Z,1001.66
2019-04-28T09:06:05.368Z,1001.65
2019-04-28T09:07:05.523Z,1001.63
2019-04-28T09:08:05.695Z,1001.68
2019-04-28T09:09:05.926Z,1001.69
2019-04-28T09:10:06.063Z,1001.66
2019-04-28T09:11:06.208Z,1001.69
2019-04-28T09:12:06.344Z,1001.70
2019-04-28T09:13:06.551Z,1001.69
2019-04-28T09:14:06.932Z,1001.73
2019-04-28T09:15:07.486Z,1001.71
2019-04-28T09:16:06.993Z,1001.74
2019-04-28T09:17:07.151Z,1001.78
2019-04-28T09:18:07.917Z,1001.80
2019-04-28T09:19:07.460Z,1001.82
2019-04-28T09:20:07.603Z,1001.75
2019-04-28T09:21:07.762Z,1001.80
2019-04-28T09:22:07.917Z,1001.85
2019-04-28T09:23:08.071Z,1001.81
2019-04-28T09:24:08.259Z,1001.82
2019-04-28T09:25:08.397Z,1001.87
2019-04-28T09:26:09.552Z,1001.81
2019-04-28T09:27:08.800Z,1001.85
2019-04-28T09:28:08.956Z,1001.80
2019-04-28T09:29:09.120Z,1001.84
2019-04-28T09:30:09.260Z,1001.81
2019-04-28T09:31:10.935Z,1001.81
2019-04-28T09:32:09.665Z,1001.83
2019-04-28T09:33:09.879Z,1001.85
2019-04-28T09:34:10.437Z,1001.85
2019-04-28T09:35:10.193Z,1001.90
2019-04-28T09:36:10.338Z,1001.89
2019-04-28T09:37:10.556Z,1001.85
2019-04-28T09:38:10.696Z,1001.84
2019-04-28T09:39:10.857Z,1001.84
2019-04-28T09:40:11.923Z,1001.77
2019-04-28T09:41:11.179Z,1001.79
2019-04-28T09:42:11.483Z,1001.83
2019-04-28T09:43:12.439Z,1001.78
2019-04-28T09:44:11.675Z,1001.76
2019-04-28T09:45:12.835Z,1001.80
2019-04-28T09:46:12.108Z,1001.81
2019-04-28T09:47:12.276Z,1001.82
2019-04-28T09:48:12.530Z,1001.79
2019-04-28T09:49:12.687Z,1001.76
2019-04-28T09:50:12.855Z,1001.77
2019-04-28T09:51:13.042Z,1001.73
2019-04-28T09:52:13.215Z,1001.78
2019-04-28T09:53:13.396Z,1001.71
2019-04-28T09:54:13.560Z,1001.71
2019-04-28T09:55:13.777Z,1001.72
2019-04-28T09:56:14.447Z,1001.69
2019-04-28T09:57:14.089Z,1001.73
2019-04-28T09:58:14.246Z,1001.69
2019-04-28T09:59:14.400Z,1001.69
2019-04-28T10:00:14.604Z,1001.69
2019-04-28T10:01:14.934Z,1001.67
2019-04-28T10:02:15.011Z,1001.72
2019-04-28T10:03:15.199Z,1001.70
2019-04-28T10:04:15.362Z,1001.73
2019-04-28T10:05:15.576Z,1001.68
2019-04-28T10:06:15.811Z,1001.71
2019-04-28T10:07:15.973Z,1001.65
2019-04-28T10:08:16.175Z,1001.67
2019-04-28T10:09:16.937Z,1001.70
2019-04-28T10:10:16.477Z,1001.69
2019-04-28T10:11:29.735Z,1001.62
2019-04-28T10:12:26.841Z,1001.62
2019-04-28T10:13:18.938Z,1001.63
2019-04-28T10:14:17.069Z,1001.60
2019-04-28T10:15:17.251Z,1001.62
2019-04-28T10:16:17.420Z,1001.59
2019-04-28T10:17:17.588Z,1001.62
2019-04-28T10:18:17.846Z,1001.53
2019-04-28T10:19:17.934Z,1001.55
2019-04-28T10:20:18.136Z,1001.59
2019-04-28T10:21:18.337Z,1001.57
2019-04-28T10:22:18.541Z,1001.57
2019-04-28T10:23:18.762Z,1001.49
2019-04-28T10:24:19.013Z,1001.58
2019-04-28T10:25:21.190Z,1001.56
2019-04-28T10:26:20.972Z,1001.52
2019-04-28T10:27:19.499Z,1001.50
2019-04-28T10:28:20.473Z,1001.49
2019-04-28T10:29:19.926Z,1001.56
2019-04-28T10:30:20.127Z,1001.54
2019-04-28T10:31:20.302Z,1001.46
2019-04-28T10:32:21.440Z,1001.47
2019-04-28T10:33:21.504Z,1001.51
2019-04-28T10:34:20.927Z,1001.53
2019-04-28T10:35:21.443Z,1001.54
2019-04-28T10:36:21.256Z,1001.52
2019-04-28T10:37:21.445Z,1001.45
2019-04-28T10:38:22.423Z,1001.42
2019-04-28T10:39:21.863Z,1001.49
2019-04-28T10:40:22.938Z,1001.38
2019-04-28T10:41:22.186Z,1001.40
2019-04-28T10:42:22.365Z,1001.36
2019-04-28T10:43:22.501Z,1001.32
2019-04-28T10:44:23.946Z,1001.35
2019-04-28T10:45:22.814Z,1001.33
2019-04-28T10:46:22.972Z,1001.31
2019-04-28T10:47:23.146Z,1001.31
2019-04-28T10:48:23.943Z,1001.21
2019-04-28T10:49:23.461Z,1001.29
2019-04-28T10:50:23.627Z,1001.24
2019-04-28T10:51:23.782Z,1001.27
2019-04-28T10:52:23.971Z,1001.21
2019-04-28T10:53:24.112Z,1001.28
2019-04-28T10:54:24.253Z,1001.20
2019-04-28T10:55:24.448Z,1001.18
2019-04-28T10:56:25.587Z,1001.20
2019-04-28T10:57:24.821Z,1001.21
2019-04-28T10:58:24.941Z,1001.22
2019-04-28T10:59:25.095Z,1001.25
2019-04-28T11:00:25.272Z,1001.19
2019-04-28T11:01:25.438Z,1001.10
2019-04-28T11:02:26.441Z,1001.08
2019-04-28T11:03:25.825Z,1001.16
2019-04-28T11:04:25.984Z,1001.09
2019-04-28T11:05:26.162Z,1001.10
2019-04-28T11:06:26.299Z,1001.07
2019-04-28T11:07:26.461Z,1001.07
2019-04-28T11:08:26.639Z,1001.07
2019-04-28T11:09:30.853Z,1001.09
2019-04-28T11:10:28.459Z,1001.04
2019-04-28T11:11:27.190Z,1001.08
2019-04-28T11:12:27.354Z,1001.04
2019-04-28T11:13:27.517Z,1001.07
2019-04-28T11:14:27.665Z,1001.07
2019-04-28T11:15:27.842Z,1001.05
2019-04-28T11:16:28.459Z,1001.01
2019-04-28T11:17:28.216Z,1001.01
2019-04-28T11:18:28.349Z,1001.01
2019-04-28T11:19:28.517Z,1000.97
2019-04-28T11:20:28.640Z,1000.95
2019-04-28T11:21:28.811Z,1000.89
2019-04-28T11:22:28.993Z,1000.97
2019-04-28T11:23:29.156Z,1001.06
2019-04-28T11:24:29.321Z,1000.99
2019-04-28T11:25:30.447Z,1000.97
2019-04-28T11:26:29.726Z,1000.97
2019-04-28T11:27:29.890Z,1000.92
2019-04-28T11:28:30.060Z,1000.91
2019-04-28T11:29:30.225Z,1000.74
2019-04-28T11:30:30.370Z,1000.75
2019-04-28T11:31:30.554Z,1000.78
2019-04-28T11:32:32.450Z,1000.82
2019-04-28T11:33:30.948Z,1000.85
2019-04-28T11:34:31.955Z,1000.78
2019-04-28T11:35:31.338Z,1000.81
2019-04-28T11:36:31.952Z,1000.92
2019-04-28T11:37:31.713Z,1000.93
2019-04-28T11:38:31.872Z,1000.86
2019-04-28T11:39:32.026Z,1000.95
2019-04-28T11:40:32.211Z,1000.94
2019-04-28T11:41:32.404Z,1001.08
2019-04-28T11:42:32.969Z,1000.99
2019-04-28T11:43:32.723Z,1001.03
2019-04-28T11:44:32.889Z,1001.04
2019-04-28T11:45:33.950Z,1001.04
2019-04-28T11:46:33.229Z,1001.10
2019-04-28T11:47:33.477Z,1001.07
2019-04-28T11:48:33.548Z,1001.14
2019-04-28T11:49:33.763Z,1001.14
2019-04-28T11:50:33.934Z,1001.12
2019-04-28T11:51:34.128Z,1001.11
2019-04-28T11:52:34.294Z,1001.17
2019-04-28T11:53:34.460Z,1001.20
2019-04-28T11:54:34.602Z,1001.24
2019-04-28T11:55:34.770Z,1001.27
2019-04-28T11:56:41.196Z,1001.27
2019-04-28T11:57:37.060Z,1001.35
2019-04-28T11:58:35.278Z,1001.37
2019-04-28T11:59:35.465Z,1001.44
2019-04-28T12:00:35.630Z,1001.45
2019-04-28T12:01:36.459Z,1001.50
2019-04-28T12:02:35.953Z,1001.52
2019-04-28T12:03:36.128Z,1001.56
2019-04-28T12:04:36.287Z,1001.56
2019-04-28T12:05:38.405Z,1001.55
2019-04-28T12:06:37.564Z,1001.62
2019-04-28T12:07:36.695Z,1001.63
2019-04-28T12:08:36.873Z,1001.60
2019-04-28T12:09:37.048Z,1001.74
2019-04-28T12:10:37.218Z,1001.67
2019-04-28T12:11:37.386Z,1001.76